Latest Weather Observations for Nowra

IDN60901

Issued at 9:02 am EDT Friday 22 January 2021 (issued every 10 minutes, with the page automatically refreshed every 10 minutes)

About weather observations | Map of Canberra area stations | Latest observations for Canberra area | Other Formats
Station Details ID: 068072 Name: NOWRA RAN AIR STATION AWS Lat: -34.95 Lon: 150.54 Height: 109.0 m
Data from the previous 72 hours. | See also: Recent months at Nowra
Date/Time
EDT
Temp
°C
App
Temp
°C
Dew
Point
°C
Rel
Hum
%
Delta-T
°C
Wind Press
QNH
hPa
Press
MSL
hPa
Rain since
9am
mm
Dir  Spd
km/h
Gust
km/h
Spd
kts
Gust
kts
22/08:30am 23.1 22.1 14.7 59 5.0 NNW 13 17 7 9 1010.4 1010.0 0.0
22/08:00am 21.3 21.1 15.6 70 3.4 NNW 11 15 6 8 1010.6 1010.2 0.0
22/07:30am 19.4 19.6 15.7 79 2.2 N 9 11 5 6 1010.6 1010.2 0.0
22/07:00am 17.6 17.8 15.8 89 1.1 N 9 13 5 7 1010.5 1010.1 0.0
22/06:30am 16.3 16.3 15.3 94 0.6 NNW 9 11 5 6 1010.5 1010.1 0.0
22/06:00am 16.4 16.0 15.3 93 0.6 NNW 11 13 6 7 1010.1 1009.7 0.0
22/05:30am 15.4 15.4 15.2 99 0.1 NNW 9 11 5 6 1010.2 1009.8 0.0
22/05:28am 15.4 15.4 15.2 99 0.1 NNW 9 11 5 6 1010.2 1009.8 0.0
22/05:00am 14.6 16.0 14.4 99 0.1 CALM 0 0 0 0 1010.1 1009.7 0.0
22/04:44am 14.5 15.8 14.2 98 0.2 CALM 0 0 0 0 1010.2 1009.8 0.0
22/04:30am 14.6 16.0 14.3 98 0.2 CALM 0 0 0 0 1010.1 1009.7 0.0
22/04:00am 15.2 16.8 15.0 99 0.1 CALM 0 6 0 3 1010.0 1009.6 0.0
22/03:30am 15.0 16.1 14.5 97 0.3 SW 2 9 1 5 1010.0 1009.6 0.0
22/03:00am 14.5 15.8 14.0 97 0.3 CALM 0 0 0 0 1010.3 1009.9 0.0
22/02:30am 14.7 16.0 14.1 96 0.3 CALM 0 0 0 0 1010.5 1010.1 0.0
22/02:00am 15.2 16.6 14.4 95 0.5 CALM 0 0 0 0 1010.8 1010.4 0.0
22/01:30am 14.8 14.3 13.8 94 0.6 SW 9 11 5 6 1011.1 1010.7 0.0
22/01:00am 15.6 17.0 14.3 92 0.7 CALM 0 0 0 0 1011.5 1011.1 0.0
22/12:30am 15.8 17.1 14.2 90 0.9 CALM 0 0 0 0 1011.5 1011.1 0.0
22/12:00am 16.1 17.5 14.3 89 1.0 CALM 0 0 0 0 1011.8 1011.4 0.0
 
Date/Time
EDT
Temp
°C
App
Temp
°C
Dew
Point
°C
Rel
Hum
%
Delta-T
°C
Wind Press
QNH
hPa
Press
MSL
hPa
Rain since
9am
mm
Dir  Spd
km/h
Gust
km/h
Spd
kts
Gust
kts
21/11:30pm 16.1 17.4 14.1 88 1.1 CALM 0 2 0 1 1012.0 1011.6 0.0
21/11:00pm 15.9 16.0 13.9 88 1.1 SW 6 7 3 4 1012.1 1011.7 0.0
21/10:30pm 17.0 18.4 14.3 84 1.6 CALM 0 0 0 0 1012.2 1011.8 0.0
21/10:00pm 17.3 18.6 14.0 81 1.9 CALM 0 0 0 0 1012.1 1011.7 0.0
21/09:30pm 19.1 20.5 14.4 74 2.7 CALM 0 0 0 0 1012.0 1011.6 0.0
21/09:00pm 19.9 20.0 14.5 71 3.2 NE 7 9 4 5 1011.8 1011.4 0.0
21/08:30pm 20.4 20.4 14.3 68 3.6 ENE 7 11 4 6 1011.7 1011.3 0.0
21/08:00pm 21.2 20.0 13.9 63 4.2 NE 13 15 7 8 1011.6 1011.2 0.0
21/07:30pm 22.7 21.1 14.0 58 5.1 ENE 15 24 8 13 1011.7 1011.3 0.0
21/07:00pm 23.8 21.4 13.9 54 5.8 ENE 19 24 10 13 1011.5 1011.1 0.0
21/06:30pm 24.4 21.7 13.6 51 6.3 ENE 20 30 11 16 1011.5 1011.1 0.0
21/06:00pm 24.4 21.7 13.6 51 6.3 ENE 20 30 11 16 1011.7 1011.3 0.0
21/05:30pm 25.2 22.5 13.4 48 6.9 ENE 20 28 11 15 1011.8 1011.4 0.0
21/05:00pm 25.1 21.8 13.9 49 6.6 E 24 32 13 17 1012.2 1011.8 0.0
21/04:30pm 25.6 22.2 13.8 48 7.0 E 24 32 13 17 1012.6 1012.2 0.0
21/04:00pm 26.2 22.6 15.3 51 6.6 ENE 28 35 15 19 1013.2 1012.7 0.0
21/03:30pm 26.2 23.3 15.0 50 6.8 ENE 24 33 13 18 1013.8 1013.3 0.0
21/03:00pm 25.6 22.3 14.1 49 6.8 ENE 24 30 13 16 1014.2 1013.7 0.0
21/02:30pm 25.8 23.4 14.3 49 6.9 ENE 20 33 11 18 1014.7 1014.2 0.0
21/02:00pm 25.7 22.8 13.9 48 7.0 E 22 32 12 17 1015.1 1014.6 0.0
21/01:30pm 24.9 21.6 12.8 47 7.0 ENE 22 32 12 17 1015.7 1015.3 0.0
21/01:00pm 25.8 23.3 14.0 48 7.0 E 20 28 11 15 1016.1 1015.7 0.0
21/12:30pm 25.7 23.5 12.2 43 7.8 N 15 24 8 13 1016.8 1016.4 0.0
21/12:00pm 24.2 22.4 10.8 43 7.5 NNE 11 20 6 11 1017.4 1017.0 0.0
21/11:30am 23.8 21.6 12.1 48 6.7 NNE 15 24 8 13 1017.7 1017.3 0.0
21/11:00am 23.2 20.0 11.3 47 6.7 NE 19 28 10 15 1018.1 1017.7 0.0
21/10:30am 22.5 20.2 11.6 50 6.1 N 15 24 8 13 1018.6 1018.2 0.0
21/10:00am 21.8 19.8 11.5 52 5.7 N 13 28 7 15 1019.0 1018.6 0.0
21/09:30am 21.0 20.1 11.3 54 5.4 NNE 7 15 4 8 1019.4 1019.0 0.0
21/09:00am 19.8 19.8 11.0 57 4.8 N 2 9 1 5 1019.6 1019.2 0.0
21/08:30am 19.1 18.0 12.1 64 3.9 WNW 9 13 5 7 1019.8 1019.4 0.0
21/08:00am 17.3 16.0 12.6 74 2.6 NW 11 13 6 7 1019.7 1019.3 0.0
21/07:30am 15.5 16.3 12.4 82 1.7 CALM 0 0 0 0 1019.4 1019.0 0.0
21/07:00am 14.3 13.4 12.5 89 1.0 WNW 9 11 5 6 1019.3 1018.9 0.0
21/06:30am 13.1 12.0 11.8 92 0.7 WNW 9 11 5 6 1019.0 1018.6 0.0
21/06:00am 13.1 11.6 11.8 92 0.7 WNW 11 13 6 7 1018.9 1018.5 0.0
21/05:30am 13.0 11.4 11.7 92 0.7 WNW 11 13 6 7 1018.8 1018.4 0.0
21/05:00am 12.9 11.5 12.1 95 0.4 WNW 11 13 6 7 1018.9 1018.5 0.0
21/04:30am 12.4 11.5 11.5 94 0.5 NW 7 9 4 5 1018.8 1018.4 0.0
21/04:00am 12.4 12.9 11.6 95 0.4 CALM 0 6 0 3 1018.9 1018.5 0.0
21/03:30am 12.5 12.2 11.6 94 0.5 W 4 9 2 5 1019.3 1018.9 0.0
21/03:00am 12.9 13.6 12.1 95 0.4 CALM 0 0 0 0 1019.3 1018.9 0.0
21/02:30am 12.5 13.0 11.7 95 0.4 CALM 0 0 0 0 1019.5 1019.1 0.0
21/02:00am 12.9 13.6 12.1 95 0.4 CALM 0 0 0 0 1019.8 1019.4 0.0
21/01:30am 12.6 13.0 11.2 91 0.7 CALM 0 0 0 0 1020.0 1019.6 0.0
21/01:00am 13.3 13.9 11.9 91 0.8 CALM 0 0 0 0 1020.4 1020.0 0.0
21/12:30am 13.2 13.6 11.3 88 1.0 CALM 0 0 0 0 1020.5 1020.1 0.0
21/12:00am 13.4 13.2 11.8 90 0.9 WSW 4 9 2 5 1020.7 1020.3 0.0
 
Date/Time
EDT
Temp
°C
App
Temp
°C
Dew
Point
°C
Rel
Hum
%
Delta-T
°C
Wind Press
QNH
hPa
Press
MSL
hPa
Rain since
9am
mm
Dir  Spd
km/h
Gust
km/h
Spd
kts
Gust
kts
20/11:30pm 14.7 14.9 12.0 84 1.5 SSW 2 19 1 10 1020.8 1020.4 0.0
20/11:00pm 15.4 16.1 12.3 82 1.7 CALM 0 0 0 0 1021.2 1020.8 0.0
20/10:30pm 13.8 14.0 10.6 81 1.7 CALM 0 0 0 0 1021.3 1020.9 0.0
20/10:00pm 14.1 14.4 10.9 81 1.7 CALM 0 0 0 0 1021.3 1020.9 0.0
20/09:30pm 16.0 15.2 11.0 72 2.7 NE 6 9 3 5 1021.1 1020.7 0.0
20/09:00pm 16.5 15.2 11.2 71 2.9 NE 9 11 5 6 1020.8 1020.4 0.0
20/08:30pm 17.2 15.4 11.0 67 3.4 ENE 11 15 6 8 1020.7 1020.3 0.0
20/08:00pm 18.1 15.6 11.0 63 3.8 ENE 15 19 8 10 1020.8 1020.4 0.0
20/07:30pm 19.1 16.5 10.6 58 4.6 ENE 15 20 8 11 1020.7 1020.3 0.0
20/07:00pm 19.9 17.0 10.9 56 4.9 NE 17 20 9 11 1020.6 1020.2 0.0
20/06:30pm 20.7 17.4 10.8 53 5.4 NE 19 26 10 14 1020.5 1020.1 0.0
20/06:00pm 21.4 18.8 10.6 50 5.9 ENE 15 24 8 13 1020.5 1020.1 0.0
20/05:30pm 21.6 19.1 11.0 51 5.9 ESE 15 20 8 11 1020.7 1020.3 0.0
20/05:00pm 21.5 18.3 10.0 48 6.2 ENE 17 22 9 12 1021.0 1020.6 0.0
20/04:30pm 21.8 19.3 9.7 46 6.6 E 13 19 7 10 1021.3 1020.9 0.0
20/04:00pm 21.1 18.5 9.4 47 6.3 E 13 20 7 11 1021.4 1021.0 0.0
20/03:30pm 21.7 19.1 9.3 45 6.7 ESE 13 19 7 10 1021.8 1021.4 0.0
20/03:00pm 21.0 18.9 9.6 48 6.1 ESE 11 20 6 11 1022.0 1021.6 0.0
20/02:30pm 21.1 18.5 9.4 47 6.3 SSE 13 19 7 10 1022.2 1021.8 0.0
20/02:00pm 21.6 18.3 9.5 46 6.5 ESE 17 28 9 15 1022.4 1022.0 0.0
20/01:30pm 21.4 19.2 8.0 42 7.0 E 9 20 5 11 1022.8 1022.3 0.0
20/01:00pm 21.0 18.1 6.5 39 7.3 SE 11 19 6 10 1023.1 1022.6 0.0
20/12:30pm 20.7 18.1 7.7 43 6.7 ESE 11 17 6 9 1023.5 1023.0 0.0
20/12:00pm 20.8 17.6 8.4 45 6.5 SSE 15 20 8 11 1023.7 1023.2 0.0
20/11:30am 19.9 16.6 9.5 51 5.6 S 17 20 9 11 1023.9 1023.4 0.0
20/11:00am 20.1 17.0 10.2 53 5.3 SE 17 20 9 11 1024.0 1023.6 0.0
20/10:30am 19.9 17.5 10.0 53 5.3 SSE 13 17 7 9 1024.0 1023.6 0.0
20/10:00am 19.7 16.8 9.6 52 5.4 ESE 15 26 8 14 1023.9 1023.4 0.0
20/09:30am 19.9 17.6 10.6 55 5.1 SSE 13 22 7 12 1023.9 1023.4 0.0
20/09:00am 19.0 17.2 10.8 59 4.4 SSE 11 19 6 10 1024.0 1023.6 1.2
20/08:30am 17.9 15.8 11.0 64 3.7 S 13 17 7 9 1024.2 1023.8 1.0
20/08:00am 17.1 15.1 11.6 70 3.0 SSW 13 17 7 9 1024.0 1023.6 1.0
20/07:30am 16.3 14.2 11.2 72 2.8 SSW 13 17 7 9 1023.7 1023.2 1.0
20/07:00am 15.9 14.3 11.7 76 2.3 SSW 11 15 6 8 1023.5 1023.0 1.0
20/06:30am 15.7 13.8 11.7 77 2.2 SSW 13 17 7 9 1023.1 1022.6 1.0
20/06:00am 15.6 14.1 11.8 78 2.1 SSW 11 15 6 8 1022.9 1022.4 1.0
20/05:30am 15.6 14.1 11.8 78 2.1 SSW 11 15 6 8 1022.4 1022.0 1.0
20/05:00am 15.6 14.1 12.0 79 2.0 SSW 11 13 6 7 1022.1 1021.7 1.0
20/04:30am 15.4 14.1 12.5 83 1.6 SSW 11 13 6 7 1022.0 1021.6 1.0
20/04:00am 15.2 14.0 12.9 86 1.3 SW 11 13 6 7 1022.0 1021.6 1.0
20/03:30am 15.1 13.6 13.1 88 1.1 SSW 13 15 7 8 1022.0 1021.6 1.0
20/03:00am 14.3 13.4 12.5 89 1.0 SW 9 11 5 6 1022.1 1021.7 1.0
20/02:30am 14.5 13.5 12.4 87 1.1 SSW 9 13 5 7 1022.1 1021.7 1.0
20/02:00am 14.8 13.6 12.8 88 1.1 S 11 15 6 8 1022.2 1021.8 1.0
20/01:30am 15.3 13.6 13.7 90 0.9 SSW 15 19 8 10 1022.3 1021.9 1.0
20/01:00am 15.4 13.5 14.1 92 0.7 SSW 17 20 9 11 1022.6 1022.2 1.0
20/12:30am 15.4 14.0 14.6 95 0.5 WSW 15 17 8 9 1022.8 1022.3 1.0
20/12:00am 15.6 15.0 14.5 93 0.6 WNW 11 15 6 8 1023.0 1022.5 1.0
 
Date/Time
EDT
Temp
°C
App
Temp
°C
Dew
Point
°C
Rel
Hum
%
Delta-T
°C
Wind Press
QNH
hPa
Press
MSL
hPa
Rain since
9am
mm
Dir  Spd
km/h
Gust
km/h
Spd
kts
Gust
kts
19/11:56pm 15.5 14.7 14.0 91 0.9 W 11 15 6 8 1023.0 1022.5 1.0
19/11:35pm 15.7 14.4 13.7 88 1.1 SSW 13 20 7 11 1023.2 1022.7 0.6
19/11:30pm 15.8 14.5 13.6 87 1.2 SSW 13 20 7 11 1023.2 1022.7 0.4
19/11:00pm 16.8 15.2 12.7 77 2.3 SSE 13 17 7 9 1023.0 1022.5 0.0
19/10:30pm 16.6 15.5 13.1 80 2.0 S 11 15 6 8 1023.1 1022.6 0.0
19/10:00pm 16.7 15.2 13.0 79 2.1 SSE 13 19 7 10 1022.8 1022.3 0.0
19/09:30pm 17.8 15.7 12.3 70 3.1 SE 15 20 8 11 1022.5 1022.1 0.0
19/09:00pm 17.9 16.0 11.7 67 3.4 SSE 13 20 7 11 1022.1 1021.7 0.0
19/08:30pm 18.4 15.9 11.2 63 3.9 SE 15 20 8 11 1021.7 1021.3 0.0
19/08:00pm 18.7 15.3 11.3 62 4.0 SE 20 28 11 15 1021.3 1020.9 0.0
19/07:30pm 18.6 14.0 10.9 61 4.2 SSE 26 35 14 19 1020.8 1020.4 0.0
19/07:00pm 18.8 15.1 11.6 63 4.0 SE 22 35 12 19 1020.4 1020.0 0.0
19/06:30pm 19.1 15.2 10.9 59 4.5 SE 22 30 12 16 1020.1 1019.7 0.0
19/06:00pm 19.5 16.1 11.3 59 4.5 SE 20 32 11 17 1019.7 1019.3 0.0
19/05:30pm 19.6 15.6 10.6 56 4.9 SE 22 33 12 18 1019.5 1019.1 0.0
19/05:00pm 19.8 15.5 10.8 56 4.9 SSE 24 33 13 18 1019.4 1019.0 0.0
19/04:30pm 20.0 15.7 10.7 55 5.1 SSE 24 32 13 17 1019.4 1019.0 0.0
19/04:00pm 20.3 15.7 9.8 51 5.6 SSE 24 30 13 16 1019.2 1018.8 0.0
19/03:30pm 21.5 16.3 10.3 49 6.1 SSE 28 37 15 20 1019.1 1018.7 0.0
19/03:00pm 21.0 16.2 10.2 50 5.9 SSE 26 33 14 18 1019.1 1018.7 0.0
19/02:30pm 20.7 15.2 9.3 48 6.1 SE 28 39 15 21 1018.9 1018.5 0.0
19/02:00pm 20.1 15.1 9.7 51 5.6 SSE 26 35 14 19 1019.0 1018.6 0.0
19/01:30pm 20.9 16.1 10.4 51 5.7 SE 26 33 14 18 1018.7 1018.3 0.0
19/01:00pm 21.3 16.1 10.2 49 6.0 SE 28 39 15 21 1018.6 1018.2 0.0
19/12:30pm 20.9 16.3 9.8 49 6.0 SSE 24 33 13 18 1018.7 1018.3 0.0
19/12:00pm 20.0 15.1 9.9 52 5.4 SSE 26 39 14 21 1018.6 1018.2 0.0
19/11:30am 20.2 16.1 10.0 52 5.5 SSE 22 35 12 19 1018.3 1017.9 0.0
19/11:00am 20.5 16.6 10.9 54 5.3 SSE 22 33 12 18 1018.0 1017.6 0.0
19/10:30am 20.6 16.5 11.5 56 5.1 SE 24 35 13 19 1017.8 1017.4 0.0
19/10:00am 20.2 15.4 11.7 58 4.7 S 28 37 15 20 1017.5 1017.1 0.0
19/09:30am 20.1 16.0 12.8 63 4.1 SSE 26 37 14 20 1017.4 1017.0 0.0

Latest Capital City Observations: Canberra | Sydney | Melbourne | Brisbane | Adelaide | Perth | Hobart | Darwin

Other formats

Comma delimited format used in spreadsheet applications
http://www.bom.gov.au/fwo/IDN60903/IDN60903.94750.axf

JavaScript Object Notation format (JSON) in row-major order
http://www.bom.gov.au/fwo/IDN60903/IDN60903.94750.json

Data quality

Most of these data are generated automatically and are frequently updated. Quality checks on data are not normally performed. It is possible for incorrect values to appear. Refer to information at About Latest Weather Observations and please check the disclaimer before using these data.